sensor_id;sensor_type;location;lat;lon;timestamp;temperature;humidity
68943;DHT22;60852;52.190;4.422;2023-09-18T00:00:40;20.22;83.97
68943;DHT22;60852;52.190;4.422;2023-09-18T00:03:08;20.24;84.04
68943;DHT22;60852;52.190;4.422;2023-09-18T00:05:34;20.22;84.07
68943;DHT22;60852;52.190;4.422;2023-09-18T00:07:59;20.29;83.90
68943;DHT22;60852;52.190;4.422;2023-09-18T00:10:27;20.26;83.88
68943;DHT22;60852;52.190;4.422;2023-09-18T00:12:54;20.29;83.77
68943;DHT22;60852;52.190;4.422;2023-09-18T00:15:20;20.32;83.70
68943;DHT22;60852;52.190;4.422;2023-09-18T00:17:46;20.32;83.71
68943;DHT22;60852;52.190;4.422;2023-09-18T00:20:11;20.33;83.74
68943;DHT22;60852;52.190;4.422;2023-09-18T00:22:37;20.42;83.74
68943;DHT22;60852;52.190;4.422;2023-09-18T00:25:02;20.45;83.79
68943;DHT22;60852;52.190;4.422;2023-09-18T00:27:29;20.50;83.72
68943;DHT22;60852;52.190;4.422;2023-09-18T00:29:54;20.56;83.76
68943;DHT22;60852;52.190;4.422;2023-09-18T00:32:20;20.60;83.67
68943;DHT22;60852;52.190;4.422;2023-09-18T00:34:45;20.66;83.68
68943;DHT22;60852;52.190;4.422;2023-09-18T00:37:11;20.73;83.64
68943;DHT22;60852;52.190;4.422;2023-09-18T00:39:38;20.77;83.46
68943;DHT22;60852;52.190;4.422;2023-09-18T00:42:03;20.83;83.33
68943;DHT22;60852;52.190;4.422;2023-09-18T00:44:29;20.87;83.18
68943;DHT22;60852;52.190;4.422;2023-09-18T00:46:55;20.90;83.01
68943;DHT22;60852;52.190;4.422;2023-09-18T00:49:22;20.93;82.87
68943;DHT22;60852;52.190;4.422;2023-09-18T00:51:49;20.97;82.77
68943;DHT22;60852;52.190;4.422;2023-09-18T00:54:18;20.98;82.66
68943;DHT22;60852;52.190;4.422;2023-09-18T00:56:45;21.01;82.59
68943;DHT22;60852;52.190;4.422;2023-09-18T00:59:12;21.04;82.48
68943;DHT22;60852;52.190;4.422;2023-09-18T01:01:39;21.03;82.27
68943;DHT22;60852;52.190;4.422;2023-09-18T01:04:06;21.04;82.27
68943;DHT22;60852;52.190;4.422;2023-09-18T01:06:32;21.03;82.15
68943;DHT22;60852;52.190;4.422;2023-09-18T01:08:58;21.06;82.17
68943;DHT22;60852;52.190;4.422;2023-09-18T01:11:36;21.01;82.10
68943;DHT22;60852;52.190;4.422;2023-09-18T01:14:29;21.06;82.08
68943;DHT22;60852;52.190;4.422;2023-09-18T01:16:56;21.04;82.06
68943;DHT22;60852;52.190;4.422;2023-09-18T01:19:38;21.01;81.92
68943;DHT22;60852;52.190;4.422;2023-09-18T01:22:05;20.96;81.90
68943;DHT22;60852;52.190;4.422;2023-09-18T01:24:32;20.96;81.90
68943;DHT22;60852;52.190;4.422;2023-09-18T01:26:58;20.97;81.95
68943;DHT22;60852;52.190;4.422;2023-09-18T01:29:23;20.97;81.99
68943;DHT22;60852;52.190;4.422;2023-09-18T01:31:49;20.94;81.84
68943;DHT22;60852;52.190;4.422;2023-09-18T01:34:19;20.91;81.88
68943;DHT22;60852;52.190;4.422;2023-09-18T01:36:47;20.93;81.95
68943;DHT22;60852;52.190;4.422;2023-09-18T01:39:14;20.90;82.17
68943;DHT22;60852;52.190;4.422;2023-09-18T01:41:41;20.91;82.23
68943;DHT22;60852;52.190;4.422;2023-09-18T01:44:07;20.91;82.30
68943;DHT22;60852;52.190;4.422;2023-09-18T01:46:33;20.88;82.30
68943;DHT22;60852;52.190;4.422;2023-09-18T01:49:02;20.86;82.44
68943;DHT22;60852;52.190;4.422;2023-09-18T01:51:29;20.91;82.56
68943;DHT22;60852;52.190;4.422;2023-09-18T01:53:56;20.91;82.45
68943;DHT22;60852;52.190;4.422;2023-09-18T01:56:23;20.90;82.52
68943;DHT22;60852;52.190;4.422;2023-09-18T01:58:49;20.90;82.44
68943;DHT22;60852;52.190;4.422;2023-09-18T02:01:15;20.90;82.57
68943;DHT22;60852;52.190;4.422;2023-09-18T02:03:40;20.88;82.51
68943;DHT22;60852;52.190;4.422;2023-09-18T02:06:07;20.90;82.50
68943;DHT22;60852;52.190;4.422;2023-09-18T02:08:34;20.88;82.46
68943;DHT22;60852;52.190;4.422;2023-09-18T02:10:59;20.86;82.61
68943;DHT22;60852;52.190;4.422;2023-09-18T02:13:25;20.84;82.55
68943;DHT22;60852;52.190;4.422;2023-09-18T02:15:51;20.83;82.68
68943;DHT22;60852;52.190;4.422;2023-09-18T02:18:16;20.84;82.79
68943;DHT22;60852;52.190;4.422;2023-09-18T02:20:42;20.83;82.87
68943;DHT22;60852;52.190;4.422;2023-09-18T02:23:09;20.86;82.97
68943;DHT22;60852;52.190;4.422;2023-09-18T02:25:35;20.86;82.96
68943;DHT22;60852;52.190;4.422;2023-09-18T02:28:00;20.86;83.00
68943;DHT22;60852;52.190;4.422;2023-09-18T02:30:26;20.86;82.94
68943;DHT22;60852;52.190;4.422;2023-09-18T02:32:51;20.86;83.10
68943;DHT22;60852;52.190;4.422;2023-09-18T02:35:17;20.86;83.01
68943;DHT22;60852;52.190;4.422;2023-09-18T02:37:42;20.86;83.12
68943;DHT22;60852;52.190;4.422;2023-09-18T02:40:08;20.90;83.17
68943;DHT22;60852;52.190;4.422;2023-09-18T02:42:34;20.91;83.32
68943;DHT22;60852;52.190;4.422;2023-09-18T02:44:59;20.88;83.31
68943;DHT22;60852;52.190;4.422;2023-09-18T02:47:25;20.91;83.42
68943;DHT22;60852;52.190;4.422;2023-09-18T02:49:51;20.94;83.34
68943;DHT22;60852;52.190;4.422;2023-09-18T02:52:16;20.91;83.21
68943;DHT22;60852;52.190;4.422;2023-09-18T02:54:42;20.86;83.32
68943;DHT22;60852;52.190;4.422;2023-09-18T02:57:07;20.86;83.38
68943;DHT22;60852;52.190;4.422;2023-09-18T02:59:32;20.83;83.48
68943;DHT22;60852;52.190;4.422;2023-09-18T03:01:59;20.80;83.61
68943;DHT22;60852;52.190;4.422;2023-09-18T03:04:24;20.79;83.81
68943;DHT22;60852;52.190;4.422;2023-09-18T03:06:50;20.79;83.92
68943;DHT22;60852;52.190;4.422;2023-09-18T03:09:15;20.80;83.90
68943;DHT22;60852;52.190;4.422;2023-09-18T03:11:42;20.81;83.91
68943;DHT22;60852;52.190;4.422;2023-09-18T03:14:09;20.80;83.91
68943;DHT22;60852;52.190;4.422;2023-09-18T03:16:34;20.80;83.97
68943;DHT22;60852;52.190;4.422;2023-09-18T03:18:59;20.79;83.95
68943;DHT22;60852;52.190;4.422;2023-09-18T03:21:25;20.77;84.06
68943;DHT22;60852;52.190;4.422;2023-09-18T03:23:50;20.77;84.01
68943;DHT22;60852;52.190;4.422;2023-09-18T03:26:16;20.77;84.10
68943;DHT22;60852;52.190;4.422;2023-09-18T03:28:41;20.75;84.17
68943;DHT22;60852;52.190;4.422;2023-09-18T03:31:07;20.72;84.22
68943;DHT22;60852;52.190;4.422;2023-09-18T03:33:32;20.72;84.40
68943;DHT22;60852;52.190;4.422;2023-09-18T03:35:58;20.69;84.38
68943;DHT22;60852;52.190;4.422;2023-09-18T03:38:24;20.70;84.43
68943;DHT22;60852;52.190;4.422;2023-09-18T03:40:50;20.69;84.43
68943;DHT22;60852;52.190;4.422;2023-09-18T03:43:16;20.70;84.56
68943;DHT22;60852;52.190;4.422;2023-09-18T03:45:41;20.63;84.58
68943;DHT22;60852;52.190;4.422;2023-09-18T03:48:07;20.52;85.15
68943;DHT22;60852;52.190;4.422;2023-09-18T03:50:32;20.45;85.48
68943;DHT22;60852;52.190;4.422;2023-09-18T03:52:58;20.45;85.88
68943;DHT22;60852;52.190;4.422;2023-09-18T03:55:23;20.40;86.21
68943;DHT22;60852;52.190;4.422;2023-09-18T03:57:49;20.45;86.23
68943;DHT22;60852;52.190;4.422;2023-09-18T04:00:15;20.52;86.31
68943;DHT22;60852;52.190;4.422;2023-09-18T04:02:41;20.55;86.55
68943;DHT22;60852;52.190;4.422;2023-09-18T04:05:07;20.59;86.14
68943;DHT22;60852;52.190;4.422;2023-09-18T04:07:33;20.57;86.40
68943;DHT22;60852;52.190;4.422;2023-09-18T04:09:58;20.60;86.34
68943;DHT22;60852;52.190;4.422;2023-09-18T04:12:24;20.62;86.28
68943;DHT22;60852;52.190;4.422;2023-09-18T04:14:49;20.59;86.35
68943;DHT22;60852;52.190;4.422;2023-09-18T04:17:15;20.55;86.55
68943;DHT22;60852;52.190;4.422;2023-09-18T04:19:40;20.49;86.98
68943;DHT22;60852;52.190;4.422;2023-09-18T04:22:06;20.39;87.51
68943;DHT22;60852;52.190;4.422;2023-09-18T04:24:31;20.40;87.64
68943;DHT22;60852;52.190;4.422;2023-09-18T04:26:57;20.32;88.03
68943;DHT22;60852;52.190;4.422;2023-09-18T04:29:22;20.22;88.30
68943;DHT22;60852;52.190;4.422;2023-09-18T04:31:48;20.29;88.19
68943;DHT22;60852;52.190;4.422;2023-09-18T04:34:14;20.30;88.07
68943;DHT22;60852;52.190;4.422;2023-09-18T04:36:39;20.33;88.01
68943;DHT22;60852;52.190;4.422;2023-09-18T04:39:06;20.40;87.93
68943;DHT22;60852;52.190;4.422;2023-09-18T04:41:32;20.46;87.79
68943;DHT22;60852;52.190;4.422;2023-09-18T04:43:58;20.50;87.54
68943;DHT22;60852;52.190;4.422;2023-09-18T04:46:24;20.50;87.45
68943;DHT22;60852;52.190;4.422;2023-09-18T04:48:50;20.53;87.40
68943;DHT22;60852;52.190;4.422;2023-09-18T04:51:16;20.46;87.26
68943;DHT22;60852;52.190;4.422;2023-09-18T04:53:41;20.52;87.21
68943;DHT22;60852;52.190;4.422;2023-09-18T04:56:07;20.47;87.09
68943;DHT22;60852;52.190;4.422;2023-09-18T04:58:33;20.55;87.07
68943;DHT22;60852;52.190;4.422;2023-09-18T05:00:59;20.55;86.94
68943;DHT22;60852;52.190;4.422;2023-09-18T05:03:26;20.53;86.91
68943;DHT22;60852;52.190;4.422;2023-09-18T05:05:54;20.49;87.06
68943;DHT22;60852;52.190;4.422;2023-09-18T05:08:20;20.49;87.25
68943;DHT22;60852;52.190;4.422;2023-09-18T05:10:46;20.49;87.42
68943;DHT22;60852;52.190;4.422;2023-09-18T05:13:11;20.49;87.58
68943;DHT22;60852;52.190;4.422;2023-09-18T05:15:37;20.47;87.74
68943;DHT22;60852;52.190;4.422;2023-09-18T05:18:03;20.46;87.74
68943;DHT22;60852;52.190;4.422;2023-09-18T05:20:30;20.45;88.07
68943;DHT22;60852;52.190;4.422;2023-09-18T05:22:58;20.47;88.10
68943;DHT22;60852;52.190;4.422;2023-09-18T05:25:25;20.50;88.17
68943;DHT22;60852;52.190;4.422;2023-09-18T05:27:52;20.55;88.02
68943;DHT22;60852;52.190;4.422;2023-09-18T05:30:25;20.55;88.05
68943;DHT22;60852;52.190;4.422;2023-09-18T05:32:57;20.57;87.98
68943;DHT22;60852;52.190;4.422;2023-09-18T05:35:27;20.60;87.99
68943;DHT22;60852;52.190;4.422;2023-09-18T05:37:53;20.57;87.90
68943;DHT22;60852;52.190;4.422;2023-09-18T05:40:22;20.50;88.17
68943;DHT22;60852;52.190;4.422;2023-09-18T05:42:47;20.55;88.03
68943;DHT22;60852;52.190;4.422;2023-09-18T05:45:14;20.56;87.97
68943;DHT22;60852;52.190;4.422;2023-09-18T05:47:42;20.56;87.95
68943;DHT22;60852;52.190;4.422;2023-09-18T05:50:09;20.56;87.92
68943;DHT22;60852;52.190;4.422;2023-09-18T05:52:35;20.56;87.86
68943;DHT22;60852;52.190;4.422;2023-09-18T05:55:02;20.56;87.84
68943;DHT22;60852;52.190;4.422;2023-09-18T05:57:27;20.52;87.82
68943;DHT22;60852;52.190;4.422;2023-09-18T05:59:56;20.50;87.78
68943;DHT22;60852;52.190;4.422;2023-09-18T06:02:23;20.47;87.79
68943;DHT22;60852;52.190;4.422;2023-09-18T06:04:55;20.46;87.79
68943;DHT22;60852;52.190;4.422;2023-09-18T06:07:21;20.49;87.70
68943;DHT22;60852;52.190;4.422;2023-09-18T06:09:48;20.49;87.50
68943;DHT22;60852;52.190;4.422;2023-09-18T06:12:13;20.46;87.33
68943;DHT22;60852;52.190;4.422;2023-09-18T06:14:39;20.46;87.33
68943;DHT22;60852;52.190;4.422;2023-09-18T06:17:05;20.47;87.37
68943;DHT22;60852;52.190;4.422;2023-09-18T06:19:31;20.49;87.19
68943;DHT22;60852;52.190;4.422;2023-09-18T06:21:58;20.50;87.17
68943;DHT22;60852;52.190;4.422;2023-09-18T06:24:23;20.50;86.95
68943;DHT22;60852;52.190;4.422;2023-09-18T06:26:49;20.46;86.86
68943;DHT22;60852;52.190;4.422;2023-09-18T06:29:16;20.45;86.90
68943;DHT22;60852;52.190;4.422;2023-09-18T06:31:41;20.36;87.02
68943;DHT22;60852;52.190;4.422;2023-09-18T06:34:07;20.38;87.07
68943;DHT22;60852;52.190;4.422;2023-09-18T06:36:33;20.39;87.05
68943;DHT22;60852;52.190;4.422;2023-09-18T06:38:58;20.42;87.02
68943;DHT22;60852;52.190;4.422;2023-09-18T06:41:24;20.46;86.97
68943;DHT22;60852;52.190;4.422;2023-09-18T06:43:50;20.49;87.00
68943;DHT22;60852;52.190;4.422;2023-09-18T06:46:15;20.50;86.80
68943;DHT22;60852;52.190;4.422;2023-09-18T06:48:41;20.49;86.91
68943;DHT22;60852;52.190;4.422;2023-09-18T06:51:11;20.53;86.92
68943;DHT22;60852;52.190;4.422;2023-09-18T06:53:36;20.55;86.82
68943;DHT22;60852;52.190;4.422;2023-09-18T06:56:02;20.60;86.75
68943;DHT22;60852;52.190;4.422;2023-09-18T06:58:27;20.60;86.76
68943;DHT22;60852;52.190;4.422;2023-09-18T07:00:52;20.66;86.75
68943;DHT22;60852;52.190;4.422;2023-09-18T07:03:18;20.72;86.61
68943;DHT22;60852;52.190;4.422;2023-09-18T07:05:43;20.77;86.51
68943;DHT22;60852;52.190;4.422;2023-09-18T07:08:09;20.75;86.43
68943;DHT22;60852;52.190;4.422;2023-09-18T07:10:38;20.63;86.54
68943;DHT22;60852;52.190;4.422;2023-09-18T07:13:04;20.56;86.85
68943;DHT22;60852;52.190;4.422;2023-09-18T07:15:29;20.45;86.90
68943;DHT22;60852;52.190;4.422;2023-09-18T07:17:55;20.35;87.10
68943;DHT22;60852;52.190;4.422;2023-09-18T07:20:20;20.35;87.39
68943;DHT22;60852;52.190;4.422;2023-09-18T07:22:48;20.21;87.13
68943;DHT22;60852;52.190;4.422;2023-09-18T07:25:14;20.24;87.33
68943;DHT22;60852;52.190;4.422;2023-09-18T07:27:40;20.25;86.88
68943;DHT22;60852;52.190;4.422;2023-09-18T07:30:10;20.22;86.89
68943;DHT22;60852;52.190;4.422;2023-09-18T07:32:36;20.19;86.42
68943;DHT22;60852;52.190;4.422;2023-09-18T07:35:02;20.26;86.61
68943;DHT22;60852;52.190;4.422;2023-09-18T07:37:30;20.33;86.28
68943;DHT22;60852;52.190;4.422;2023-09-18T07:39:55;20.38;86.02
68943;DHT22;60852;52.190;4.422;2023-09-18T07:42:24;20.38;85.66
68943;DHT22;60852;52.190;4.422;2023-09-18T07:44:50;20.45;85.45
68943;DHT22;60852;52.190;4.422;2023-09-18T07:47:15;20.35;85.15
68943;DHT22;60852;52.190;4.422;2023-09-18T07:49:41;20.38;85.37
68943;DHT22;60852;52.190;4.422;2023-09-18T07:52:06;20.45;85.22
68943;DHT22;60852;52.190;4.422;2023-09-18T07:54:32;20.40;85.13
68943;DHT22;60852;52.190;4.422;2023-09-18T07:56:57;20.47;84.81
68943;DHT22;60852;52.190;4.422;2023-09-18T07:59:22;20.55;84.71
68943;DHT22;60852;52.190;4.422;2023-09-18T08:01:50;20.57;84.30
68943;DHT22;60852;52.190;4.422;2023-09-18T08:04:16;20.60;84.40
68943;DHT22;60852;52.190;4.422;2023-09-18T08:06:41;20.66;84.03
68943;DHT22;60852;52.190;4.422;2023-09-18T08:09:07;20.70;83.77
68943;DHT22;60852;52.190;4.422;2023-09-18T08:11:35;20.72;82.86
68943;DHT22;60852;52.190;4.422;2023-09-18T08:14:02;20.67;82.19
68943;DHT22;60852;52.190;4.422;2023-09-18T08:16:28;20.66;81.95
68943;DHT22;60852;52.190;4.422;2023-09-18T08:18:54;20.63;81.14
68943;DHT22;60852;52.190;4.422;2023-09-18T08:21:21;20.73;81.41
68943;DHT22;60852;52.190;4.422;2023-09-18T08:23:48;20.80;81.09
68943;DHT22;60852;52.190;4.422;2023-09-18T08:26:13;20.83;80.74
68943;DHT22;60852;52.190;4.422;2023-09-18T08:28:39;20.98;80.72
68943;DHT22;60852;52.190;4.422;2023-09-18T08:31:09;21.15;80.30
68943;DHT22;60852;52.190;4.422;2023-09-18T08:33:35;21.14;78.97
68943;DHT22;60852;52.190;4.422;2023-09-18T08:36:02;21.12;79.03
68943;DHT22;60852;52.190;4.422;2023-09-18T08:38:27;21.04;79.18
68943;DHT22;60852;52.190;4.422;2023-09-18T08:40:57;20.94;79.19
68943;DHT22;60852;52.190;4.422;2023-09-18T08:43:24;20.97;79.48
68943;DHT22;60852;52.190;4.422;2023-09-18T08:48:15;20.90;79.42
68943;DHT22;60852;52.190;4.422;2023-09-18T08:50:42;21.01;79.56
68943;DHT22;60852;52.190;4.422;2023-09-18T08:53:08;21.06;79.35
68943;DHT22;60852;52.190;4.422;2023-09-18T08:55:34;21.20;79.33
68943;DHT22;60852;52.190;4.422;2023-09-18T08:58:00;21.27;78.84
68943;DHT22;60852;52.190;4.422;2023-09-18T09:00:26;21.18;78.73
68943;DHT22;60852;52.190;4.422;2023-09-18T09:02:52;21.12;78.92
68943;DHT22;60852;52.190;4.422;2023-09-18T09:05:20;21.11;78.90
68943;DHT22;60852;52.190;4.422;2023-09-18T09:07:46;21.06;78.34
68943;DHT22;60852;52.190;4.422;2023-09-18T09:10:11;21.24;79.04
68943;DHT22;60852;52.190;4.422;2023-09-18T09:12:57;21.31;78.27
68943;DHT22;60852;52.190;4.422;2023-09-18T09:15:25;21.35;77.79
68943;DHT22;60852;52.190;4.422;2023-09-18T09:18:02;21.34;76.87
68943;DHT22;60852;52.190;4.422;2023-09-18T09:20:28;21.27;77.38
68943;DHT22;60852;52.190;4.422;2023-09-18T09:23:02;21.23;77.00
68943;DHT22;60852;52.190;4.422;2023-09-18T09:25:30;21.21;77.42
68943;DHT22;60852;52.190;4.422;2023-09-18T09:28:02;21.31;76.96
68943;DHT22;60852;52.190;4.422;2023-09-18T09:30:31;21.38;76.60
68943;DHT22;60852;52.190;4.422;2023-09-18T09:32:58;21.61;76.68
68943;DHT22;60852;52.190;4.422;2023-09-18T09:35:29;21.59;75.54
68943;DHT22;60852;52.190;4.422;2023-09-18T09:38:09;21.41;75.35
68943;DHT22;60852;52.190;4.422;2023-09-18T09:40:39;21.34;75.39
68943;DHT22;60852;52.190;4.422;2023-09-18T09:43:08;21.32;75.01
68943;DHT22;60852;52.190;4.422;2023-09-18T09:45:34;21.37;74.41
68943;DHT22;60852;52.190;4.422;2023-09-18T09:48:02;21.41;73.35
68943;DHT22;60852;52.190;4.422;2023-09-18T09:50:29;21.51;73.89
68943;DHT22;60852;52.190;4.422;2023-09-18T09:52:55;21.63;72.96
68943;DHT22;60852;52.190;4.422;2023-09-18T09:55:30;21.61;71.92
68943;DHT22;60852;52.190;4.422;2023-09-18T09:57:58;21.69;71.27
68943;DHT22;60852;52.190;4.422;2023-09-18T10:00:39;21.79;71.59
68943;DHT22;60852;52.190;4.422;2023-09-18T10:03:13;21.90;72.00
68943;DHT22;60852;52.190;4.422;2023-09-18T10:05:42;21.93;72.17
68943;DHT22;60852;52.190;4.422;2023-09-18T10:08:16;22.09;71.89
68943;DHT22;60852;52.190;4.422;2023-09-18T10:10:49;22.16;71.80
68943;DHT22;60852;52.190;4.422;2023-09-18T10:13:29;22.21;71.12
68943;DHT22;60852;52.190;4.422;2023-09-18T10:15:56;22.25;71.28
68943;DHT22;60852;52.190;4.422;2023-09-18T10:18:28;22.33;71.81
68943;DHT22;60852;52.190;4.422;2023-09-18T10:21:03;22.67;71.68
68943;DHT22;60852;52.190;4.422;2023-09-18T10:23:56;22.95;69.76
68943;DHT22;60852;52.190;4.422;2023-09-18T10:26:26;22.72;69.94
68943;DHT22;60852;52.190;4.422;2023-09-18T10:28:55;22.60;70.29
68943;DHT22;60852;52.190;4.422;2023-09-18T10:31:26;22.64;70.62
68943;DHT22;60852;52.190;4.422;2023-09-18T10:33:52;22.55;69.39
68943;DHT22;60852;52.190;4.422;2023-09-18T10:36:20;22.81;68.14
68943;DHT22;60852;52.190;4.422;2023-09-18T10:38:48;22.67;68.15
68943;DHT22;60852;52.190;4.422;2023-09-18T10:41:19;22.51;68.24
68943;DHT22;60852;52.190;4.422;2023-09-18T10:43:46;22.45;68.70
68943;DHT22;60852;52.190;4.422;2023-09-18T10:46:13;22.32;67.46
68943;DHT22;60852;52.190;4.422;2023-09-18T10:48:42;22.82;67.50
68943;DHT22;60852;52.190;4.422;2023-09-18T10:51:10;23.09;67.96
68943;DHT22;60852;52.190;4.422;2023-09-18T10:53:36;23.30;68.04
68943;DHT22;60852;52.190;4.422;2023-09-18T10:56:02;23.39;65.87
68943;DHT22;60852;52.190;4.422;2023-09-18T10:58:33;23.26;65.94
68943;DHT22;60852;52.190;4.422;2023-09-18T11:01:04;23.12;65.70
68943;DHT22;60852;52.190;4.422;2023-09-18T11:03:33;23.27;65.71
68943;DHT22;60852;52.190;4.422;2023-09-18T11:06:07;23.02;65.94
68943;DHT22;60852;52.190;4.422;2023-09-18T11:08:33;22.79;67.44
68943;DHT22;60852;52.190;4.422;2023-09-18T11:11:07;22.62;67.37
68943;DHT22;60852;52.190;4.422;2023-09-18T11:13:42;22.81;67.87
68943;DHT22;60852;52.190;4.422;2023-09-18T11:21:27;23.18;65.91
68943;DHT22;60852;52.190;4.422;2023-09-18T11:26:29;23.15;65.15
68943;DHT22;60852;52.190;4.422;2023-09-18T11:28:58;23.16;65.61
68943;DHT22;60852;52.190;4.422;2023-09-18T11:31:48;23.12;65.79
68943;DHT22;60852;52.190;4.422;2023-09-18T11:34:26;23.20;65.33
68943;DHT22;60852;52.190;4.422;2023-09-18T11:36:52;23.09;65.55
68943;DHT22;60852;52.190;4.422;2023-09-18T11:39:37;23.22;65.15
68943;DHT22;60852;52.190;4.422;2023-09-18T11:42:32;23.11;65.29
68943;DHT22;60852;52.190;4.422;2023-09-18T11:44:58;23.19;65.48
68943;DHT22;60852;52.190;4.422;2023-09-18T11:47:25;23.39;64.91
68943;DHT22;60852;52.190;4.422;2023-09-18T11:49:56;23.52;64.85
68943;DHT22;60852;52.190;4.422;2023-09-18T11:52:28;23.30;63.38
68943;DHT22;60852;52.190;4.422;2023-09-18T11:54:59;23.18;64.16
68943;DHT22;60852;52.190;4.422;2023-09-18T11:57:25;23.13;64.95
68943;DHT22;60852;52.190;4.422;2023-09-18T11:59:51;23.05;63.86
68943;DHT22;60852;52.190;4.422;2023-09-18T12:02:31;23.09;63.86
68943;DHT22;60852;52.190;4.422;2023-09-18T12:05:13;23.12;64.17
68943;DHT22;60852;52.190;4.422;2023-09-18T12:07:40;23.11;64.09
68943;DHT22;60852;52.190;4.422;2023-09-18T12:10:10;22.98;64.34
68943;DHT22;60852;52.190;4.422;2023-09-18T12:12:36;23.01;64.70
68943;DHT22;60852;52.190;4.422;2023-09-18T12:15:01;23.02;64.77
68943;DHT22;60852;52.190;4.422;2023-09-18T12:17:28;23.09;64.65
68943;DHT22;60852;52.190;4.422;2023-09-18T12:19:55;23.11;63.95
68943;DHT22;60852;52.190;4.422;2023-09-18T12:22:27;23.32;64.68
68943;DHT22;60852;52.190;4.422;2023-09-18T12:24:54;23.27;64.12
68943;DHT22;60852;52.190;4.422;2023-09-18T12:27:35;23.20;64.40
68943;DHT22;60852;52.190;4.422;2023-09-18T12:30:02;23.19;64.28
68943;DHT22;60852;52.190;4.422;2023-09-18T12:32:30;23.13;63.55
68943;DHT22;60852;52.190;4.422;2023-09-18T12:34:58;23.11;63.25
68943;DHT22;60852;52.190;4.422;2023-09-18T12:37:23;23.16;63.36
68943;DHT22;60852;52.190;4.422;2023-09-18T12:39:50;23.27;64.17
68943;DHT22;60852;52.190;4.422;2023-09-18T12:42:20;23.45;64.46
68943;DHT22;60852;52.190;4.422;2023-09-18T12:44:49;23.52;63.90
68943;DHT22;60852;52.190;4.422;2023-09-18T12:47:16;23.50;63.55
68943;DHT22;60852;52.190;4.422;2023-09-18T12:49:42;23.33;62.65
68943;DHT22;60852;52.190;4.422;2023-09-18T12:52:07;23.29;62.85
68943;DHT22;60852;52.190;4.422;2023-09-18T12:54:42;23.29;63.55
68943;DHT22;60852;52.190;4.422;2023-09-18T12:57:15;23.36;64.06
68943;DHT22;60852;52.190;4.422;2023-09-18T12:59:41;23.54;63.67
68943;DHT22;60852;52.190;4.422;2023-09-18T13:02:07;23.56;64.56
68943;DHT22;60852;52.190;4.422;2023-09-18T13:04:37;23.77;64.23
68943;DHT22;60852;52.190;4.422;2023-09-18T13:07:07;23.87;63.51
68943;DHT22;60852;52.190;4.422;2023-09-18T13:09:33;23.98;62.87
68943;DHT22;60852;52.190;4.422;2023-09-18T13:12:01;23.94;62.79
68943;DHT22;60852;52.190;4.422;2023-09-18T13:14:26;24.01;63.05
68943;DHT22;60852;52.190;4.422;2023-09-18T13:16:52;24.15;61.97
68943;DHT22;60852;52.190;4.422;2023-09-18T13:19:19;24.08;62.07
68943;DHT22;60852;52.190;4.422;2023-09-18T13:21:48;24.01;62.44
68943;DHT22;60852;52.190;4.422;2023-09-18T13:26:53;23.80;62.38
68943;DHT22;60852;52.190;4.422;2023-09-18T13:29:18;23.88;62.55
68943;DHT22;60852;52.190;4.422;2023-09-18T13:31:44;23.73;61.32
68943;DHT22;60852;52.190;4.422;2023-09-18T13:34:09;23.63;62.32
68943;DHT22;60852;52.190;4.422;2023-09-18T13:36:35;23.66;61.94
68943;DHT22;60852;52.190;4.422;2023-09-18T13:39:01;23.40;61.80
68943;DHT22;60852;52.190;4.422;2023-09-18T13:41:26;23.45;62.44
68943;DHT22;60852;52.190;4.422;2023-09-18T13:43:51;23.40;62.78
68943;DHT22;60852;52.190;4.422;2023-09-18T13:46:21;23.24;62.81
68943;DHT22;60852;52.190;4.422;2023-09-18T13:48:47;23.05;63.41
68943;DHT22;60852;52.190;4.422;2023-09-18T13:51:13;23.05;63.86
68943;DHT22;60852;52.190;4.422;2023-09-18T13:53:39;22.99;64.49
68943;DHT22;60852;52.190;4.422;2023-09-18T13:56:06;22.99;64.77
68943;DHT22;60852;52.190;4.422;2023-09-18T13:58:32;22.94;65.33
68943;DHT22;60852;52.190;4.422;2023-09-18T14:00:58;22.91;65.99
68943;DHT22;60852;52.190;4.422;2023-09-18T14:03:24;22.82;66.36
68943;DHT22;60852;52.190;4.422;2023-09-18T14:05:50;22.78;66.49
68943;DHT22;60852;52.190;4.422;2023-09-18T14:08:15;22.74;66.04
68943;DHT22;60852;52.190;4.422;2023-09-18T14:10:43;22.64;66.74
68943;DHT22;60852;52.190;4.422;2023-09-18T14:13:09;22.60;67.84
68943;DHT22;60852;52.190;4.422;2023-09-18T14:15:34;22.53;69.24
68943;DHT22;60852;52.190;4.422;2023-09-18T14:18:00;22.32;70.47
68943;DHT22;60852;52.190;4.422;2023-09-18T14:20:25;21.71;74.19
68943;DHT22;60852;52.190;4.422;2023-09-18T14:22:50;21.08;76.98
68943;DHT22;60852;52.190;4.422;2023-09-18T14:25:17;20.65;79.18
68943;DHT22;60852;52.190;4.422;2023-09-18T14:27:42;20.36;80.40
68943;DHT22;60852;52.190;4.422;2023-09-18T14:30:08;20.26;80.91
68943;DHT22;60852;52.190;4.422;2023-09-18T14:32:35;20.08;80.20
68943;DHT22;60852;52.190;4.422;2023-09-18T14:35:02;19.92;79.99
68943;DHT22;60852;52.190;4.422;2023-09-18T14:37:28;19.79;79.98
68943;DHT22;60852;52.190;4.422;2023-09-18T14:39:54;19.61;79.81
68943;DHT22;60852;52.190;4.422;2023-09-18T14:42:19;19.54;79.11
68943;DHT22;60852;52.190;4.422;2023-09-18T14:44:45;19.54;79.79
68943;DHT22;60852;52.190;4.422;2023-09-18T14:47:11;19.49;79.52
68943;DHT22;60852;52.190;4.422;2023-09-18T14:49:37;19.51;79.85
68943;DHT22;60852;52.190;4.422;2023-09-18T14:52:04;19.51;79.41
68943;DHT22;60852;52.190;4.422;2023-09-18T14:54:30;19.57;79.47
68943;DHT22;60852;52.190;4.422;2023-09-18T14:56:55;19.53;79.21
68943;DHT22;60852;52.190;4.422;2023-09-18T14:59:21;19.63;78.81
68943;DHT22;60852;52.190;4.422;2023-09-18T15:01:46;19.68;78.72
68943;DHT22;60852;52.190;4.422;2023-09-18T15:04:14;19.70;78.18
68943;DHT22;60852;52.190;4.422;2023-09-18T15:06:40;19.77;78.60
68943;DHT22;60852;52.190;4.422;2023-09-18T15:09:05;19.79;78.70
68943;DHT22;60852;52.190;4.422;2023-09-18T15:11:33;19.97;78.49
68943;DHT22;60852;52.190;4.422;2023-09-18T15:14:01;20.24;78.27
68943;DHT22;60852;52.190;4.422;2023-09-18T15:16:27;20.49;77.89
68943;DHT22;60852;52.190;4.422;2023-09-18T15:18:54;20.69;76.42
68943;DHT22;60852;52.190;4.422;2023-09-18T15:21:20;20.81;75.89
68943;DHT22;60852;52.190;4.422;2023-09-18T15:23:45;21.00;76.02
68943;DHT22;60852;52.190;4.422;2023-09-18T15:26:11;21.07;75.26
68943;DHT22;60852;52.190;4.422;2023-09-18T15:28:37;21.01;75.04
68943;DHT22;60852;52.190;4.422;2023-09-18T15:31:02;20.97;75.51
68943;DHT22;60852;52.190;4.422;2023-09-18T15:33:28;20.86;75.33
68943;DHT22;60852;52.190;4.422;2023-09-18T15:35:53;20.80;75.83
68943;DHT22;60852;52.190;4.422;2023-09-18T15:38:19;20.62;75.84
68943;DHT22;60852;52.190;4.422;2023-09-18T15:40:46;20.49;76.30
68943;DHT22;60852;52.190;4.422;2023-09-18T15:43:12;20.40;76.91